Time;durP1;ratioP1;P1;durP2;ratioP2;P2;SDS_P1;SDS_P2;PMS_P1;PMS_P2;Temp;Humidity;BMP_temperature;BMP_pressure;BME280_temperature;BME280_humidity;BME280_pressure;Samples;Min_cycle;Max_cycle;Signal;HPM_P1;HPM_P2
2022/11/18 00:01:15;;;;;;;0.10;0.10;;;;;;;9.31;73.91;99482.81;5108359;28;20023;-77
2022/11/18 00:03:43;;;;;;;0.10;0.10;;;;;;;9.29;73.97;99497.00;5114304;28;20034;-76
2022/11/18 00:06:13;;;;;;;0.22;0.22;;;;;;;9.25;74.22;99488.31;5105849;27;20063;-77
2022/11/18 00:08:39;;;;;;;0.10;0.10;;;;;;;9.17;73.73;99495.63;5103609;28;20039;-77
2022/11/18 00:11:08;;;;;;;0.10;0.10;;;;;;;9.13;73.51;99500.16;5114892;28;20042;-77
2022/11/18 00:14:31;;;;;;;0.10;0.10;;;;;;;9.05;73.82;99508.38;5107487;28;20038;-77
2022/11/18 00:16:22;;;;;;;0.82;0.82;;;;;;;9.00;73.60;99514.75;5109898;28;20040;-78
2022/11/18 00:18:48;;;;;;;0.10;0.10;;;;;;;8.97;73.96;99517.47;5103147;28;20019;-78
2022/11/18 00:21:15;;;;;;;0.20;0.20;;;;;;;8.91;73.69;99521.22;5110599;28;20084;-76
2022/11/18 00:23:42;;;;;;;0.10;0.10;;;;;;;8.87;73.92;99520.47;5106684;28;20027;-77
2022/11/18 00:26:11;;;;;;;0.10;0.10;;;;;;;8.84;73.77;99528.47;5109821;28;20058;-77
2022/11/18 00:28:38;;;;;;;0.20;0.20;;;;;;;8.80;73.99;99525.97;5106574;28;20032;-76
2022/11/18 00:31:07;;;;;;;0.20;0.20;;;;;;;8.77;73.52;99531.38;5112951;28;20027;-77
2022/11/18 00:33:35;;;;;;;0.90;0.90;;;;;;;8.70;73.46;99526.31;5102173;28;20020;-76
2022/11/18 00:36:02;;;;;;;0.20;0.20;;;;;;;8.68;74.05;99537.81;5112409;28;20390;-76
2022/11/18 00:38:29;;;;;;;0.10;0.10;;;;;;;8.65;74.40;99536.16;5107912;28;20019;-77
2022/11/18 00:40:59;;;;;;;0.40;0.40;;;;;;;8.66;74.43;99537.00;5118410;28;20629;-76
2022/11/18 00:43:25;;;;;;;0.10;0.10;;;;;;;8.62;74.38;99543.31;5104264;28;20031;-76
2022/11/18 00:45:51;;;;;;;0.20;0.20;;;;;;;8.59;74.06;99544.28;5113770;28;20051;-76
2022/11/18 00:48:20;;;;;;;0.20;0.20;;;;;;;8.57;74.44;99552.25;5117806;28;20442;-76
2022/11/18 00:50:48;;;;;;;0.20;0.20;;;;;;;8.55;74.24;99555.88;5110418;28;20027;-77
2022/11/18 00:53:14;;;;;;;0.17;0.17;;;;;;;8.53;74.49;99552.41;5102676;28;20406;-77
2022/11/18 00:55:41;;;;;;;0.10;0.10;;;;;;;8.52;74.54;99550.66;5106128;28;20028;-78
2022/11/18 00:58:07;;;;;;;0.40;0.40;;;;;;;8.52;74.84;99556.81;5102715;28;20055;-76
2022/11/18 01:00:33;;;;;;;0.10;0.10;;;;;;;8.51;74.32;99568.28;5102085;28;20031;-77
2022/11/18 01:02:59;;;;;;;0.10;0.10;;;;;;;8.51;75.10;99576.22;5112942;28;20028;-77
2022/11/18 01:05:25;;;;;;;0.20;0.20;;;;;;;8.50;74.79;99578.88;5112334;28;20026;-77
2022/11/18 01:07:51;;;;;;;0.20;0.20;;;;;;;8.61;74.74;99575.91;5110112;28;20039;-77
2022/11/18 01:10:17;;;;;;;0.20;0.20;;;;;;;8.60;74.58;99580.34;5111895;28;20087;-77
2022/11/18 01:15:29;;;;;;;0.10;0.10;;;;;;;8.59;74.72;99586.53;5106210;28;20031;-76
2022/11/18 01:17:55;;;;;;;0.20;0.20;;;;;;;8.56;74.91;99600.69;5114514;28;20099;-76
2022/11/18 01:20:21;;;;;;;0.10;0.10;;;;;;;8.55;74.23;99592.81;5107659;28;20053;-76
2022/11/18 01:22:47;;;;;;;0.20;0.20;;;;;;;8.52;74.62;99599.06;5105851;28;20096;-76
2022/11/18 01:25:14;;;;;;;0.20;0.20;;;;;;;8.51;74.79;99602.63;5108668;28;20020;-76
2022/11/18 01:27:40;;;;;;;0.10;0.10;;;;;;;8.49;74.34;99606.22;5106497;28;20028;-76
2022/11/18 01:30:06;;;;;;;0.17;0.17;;;;;;;8.48;74.89;99604.47;5115913;28;20031;-77
2022/11/18 01:32:33;;;;;;;0.10;0.10;;;;;;;8.47;74.50;99605.38;5106568;28;21229;-76
2022/11/18 01:34:59;;;;;;;0.10;0.10;;;;;;;8.47;74.53;99610.66;5097847;28;20032;-77
2022/11/18 01:37:25;;;;;;;1.23;0.95;;;;;;;8.46;74.44;99611.53;5110752;28;20035;-77
2022/11/18 01:39:51;;;;;;;1.27;1.27;;;;;;;8.46;74.79;99611.53;5111708;28;20081;-77
2022/11/18 01:42:17;;;;;;;0.20;0.20;;;;;;;8.47;74.77;99610.66;5116819;28;20036;-77
2022/11/18 01:47:48;;;;;;;0.10;0.10;;;;;;;8.47;74.79;99611.53;5100770;27;20867;-77
2022/11/18 01:50:17;;;;;;;0.20;0.20;;;;;;;8.46;75.06;99617.72;5091689;28;20067;-78
2022/11/18 01:52:44;;;;;;;0.20;0.20;;;;;;;8.46;74.48;99619.47;5087268;28;20024;-77
2022/11/18 01:55:17;;;;;;;0.17;0.17;;;;;;;8.47;74.89;99626.50;5091078;28;20115;-77
2022/11/18 01:57:47;;;;;;;0.17;0.17;;;;;;;8.42;74.35;99624.84;5088403;28;20031;-77
2022/11/18 02:00:13;;;;;;;0.20;0.20;;;;;;;8.41;74.44;99623.13;5085801;28;20033;-76
2022/11/18 02:02:40;;;;;;;0.10;0.10;;;;;;;8.42;74.81;99631.88;5084704;28;20016;-76
2022/11/18 02:05:09;;;;;;;0.28;0.28;;;;;;;8.41;75.27;99635.44;5087779;28;20040;-76
2022/11/18 02:07:38;;;;;;;0.50;0.50;;;;;;;8.42;75.52;99635.41;5084698;28;20066;-77
2022/11/18 02:10:06;;;;;;;0.20;0.20;;;;;;;8.42;75.20;99635.41;5086439;28;20024;-76
2022/11/18 02:12:33;;;;;;;0.30;0.30;;;;;;;8.44;75.88;99643.28;5093734;28;20032;-77
2022/11/18 02:15:01;;;;;;;0.20;0.20;;;;;;;8.44;75.58;99645.91;5090185;28;20035;-76
2022/11/18 02:17:43;;;;;;;0.10;0.10;;;;;;;8.48;75.00;99649.34;5080386;28;20027;-76
2022/11/18 02:20:23;;;;;;;0.20;0.20;;;;;;;8.49;75.89;99645.81;5079809;28;20020;-76
2022/11/18 02:26:05;;;;;;;0.63;0.63;;;;;;;8.53;75.34;99658.00;5108463;27;20400;-77
2022/11/18 02:31:53;;;;;;;0.20;0.20;;;;;;;8.49;75.28;99666.94;5077852;28;20387;-77
2022/11/18 02:34:59;;;;;;;0.20;0.20;;;;;;;8.49;75.01;99672.22;5063559;28;20554;-77
2022/11/18 02:37:51;;;;;;;0.10;0.10;;;;;;;8.47;75.22;99671.38;5047440;28;20117;-77
2022/11/18 02:40:28;;;;;;;0.20;0.20;;;;;;;8.45;75.33;99675.78;5035307;28;20037;-77
2022/11/18 02:43:00;;;;;;;0.20;0.20;;;;;;;8.43;74.71;99674.06;5044637;28;20029;-78
2022/11/18 02:45:29;;;;;;;0.20;0.20;;;;;;;8.41;74.63;99675.91;5042491;28;20029;-77
2022/11/18 02:48:00;;;;;;;0.10;0.10;;;;;;;8.43;75.02;99678.50;5047019;28;20120;-77
2022/11/18 02:50:29;;;;;;;0.10;0.10;;;;;;;8.43;75.19;99674.06;5043201;28;20539;-78
2022/11/18 02:53:00;;;;;;;0.20;0.20;;;;;;;8.43;75.52;99678.50;5038719;28;20136;-77
2022/11/18 02:55:29;;;;;;;0.15;0.15;;;;;;;8.45;74.89;99686.34;5032859;28;20037;-77
2022/11/18 02:57:56;;;;;;;0.10;0.10;;;;;;;8.43;75.22;99686.41;5051772;28;20029;-77
2022/11/18 03:00:22;;;;;;;0.20;0.20;;;;;;;8.44;75.22;99690.78;5052927;28;20019;-77
2022/11/18 03:02:49;;;;;;;0.28;0.28;;;;;;;8.42;74.73;99693.47;5039569;28;20508;-77
2022/11/18 03:05:30;;;;;;;0.15;0.15;;;;;;;8.43;75.52;99689.91;5046854;28;20443;-77
2022/11/18 03:08:01;;;;;;;0.10;0.10;;;;;;;8.42;75.77;99687.31;5043736;28;20038;-77
2022/11/18 03:10:35;;;;;;;0.10;0.10;;;;;;;8.45;75.35;99686.34;5035351;28;20395;-77
2022/11/18 03:13:10;;;;;;;0.20;0.20;;;;;;;8.45;75.95;99691.63;5036480;28;20042;-77
2022/11/18 03:16:05;;;;;;;0.38;0.38;;;;;;;8.47;75.58;99696.00;5031961;28;20034;-77
2022/11/18 03:18:53;;;;;;;0.10;0.10;;;;;;;8.47;75.83;99698.63;5042453;28;20051;-76
2022/11/18 03:21:42;;;;;;;0.17;0.17;;;;;;;8.43;75.88;99696.97;5040876;28;20044;-77
2022/11/18 03:26:54;;;;;;;0.20;0.20;;;;;;;8.41;75.21;99706.69;5110086;27;20402;-77
2022/11/18 03:29:29;;;;;;;0.30;0.30;;;;;;;8.40;75.44;99711.13;5107530;27;20084;-76
2022/11/18 03:32:08;;;;;;;0.10;0.10;;;;;;;8.39;74.91;99711.19;5087968;28;20025;-76
2022/11/18 03:34:46;;;;;;;0.20;0.20;;;;;;;8.37;74.83;99716.50;5086631;28;20174;-76
2022/11/18 03:37:15;;;;;;;0.45;0.45;;;;;;;8.34;75.49;99719.22;5083791;28;20067;-77
2022/11/18 03:39:48;;;;;;;0.20;0.20;;;;;;;8.33;75.35;99719.28;5073129;28;20060;-76
2022/11/18 03:42:20;;;;;;;0.15;0.15;;;;;;;8.32;75.00;99725.44;5081604;28;20029;-77
2022/11/18 03:44:56;;;;;;;0.20;0.20;;;;;;;8.33;75.28;99728.03;5099386;28;20034;-77
2022/11/18 03:47:30;;;;;;;0.20;0.20;;;;;;;8.32;75.27;99734.22;5080709;28;20021;-77
2022/11/18 03:50:04;;;;;;;0.20;0.20;;;;;;;8.31;75.38;99735.16;5077993;28;20032;-77
2022/11/18 03:52:34;;;;;;;0.20;0.20;;;;;;;8.30;75.66;99730.78;5080118;28;20036;-77
2022/11/18 03:55:06;;;;;;;0.10;0.10;;;;;;;8.31;75.82;99737.81;5090425;28;20107;-77
2022/11/18 03:57:42;;;;;;;0.17;0.17;;;;;;;8.34;75.63;99739.47;5081971;28;20060;-77
2022/11/18 04:00:13;;;;;;;0.10;0.10;;;;;;;8.35;75.46;99739.44;5091643;28;20373;-77
2022/11/18 04:02:39;;;;;;;0.20;0.20;;;;;;;8.35;75.84;99735.91;5090175;28;20538;-77
2022/11/18 04:05:09;;;;;;;0.20;0.20;;;;;;;8.35;76.19;99739.44;5087052;28;20021;-77
2022/11/18 04:07:56;;;;;;;0.10;0.10;;;;;;;8.46;75.75;99746.16;5085719;28;20043;-77
2022/11/18 04:10:30;;;;;;;0.17;0.17;;;;;;;8.42;76.22;99751.56;5084809;28;20020;-77
2022/11/18 04:15:42;;;;;;;0.10;0.10;;;;;;;8.50;75.80;99750.47;5082622;28;20381;-76
2022/11/18 04:18:09;;;;;;;0.20;0.20;;;;;;;8.51;76.16;99753.09;5081747;28;20029;-78
2022/11/18 04:20:36;;;;;;;0.20;0.20;;;;;;;8.54;75.59;99762.69;5073432;28;20056;-78
2022/11/18 04:23:03;;;;;;;0.20;0.20;;;;;;;8.53;76.36;99766.25;5078231;28;20020;-77
2022/11/18 04:25:29;;;;;;;0.20;0.20;;;;;;;8.54;76.36;99767.97;5072233;28;20017;-77
2022/11/18 04:27:55;;;;;;;0.30;0.30;;;;;;;8.54;75.93;99774.09;5077685;28;20032;-76
2022/11/18 04:30:21;;;;;;;0.20;0.20;;;;;;;8.54;75.78;99776.75;5072091;28;20028;-76
2022/11/18 04:32:48;;;;;;;0.10;0.10;;;;;;;8.54;76.26;99786.47;5075600;28;20039;-77
2022/11/18 04:35:14;;;;;;;0.20;0.20;;;;;;;8.54;75.94;99781.19;5070702;28;20059;-76
2022/11/18 04:37:40;;;;;;;0.10;0.10;;;;;;;8.58;75.94;99788.09;5082846;28;20043;-77
2022/11/18 04:40:07;;;;;;;0.10;0.10;;;;;;;8.57;76.02;99789.88;5075815;28;20115;-75
2022/11/18 04:42:34;;;;;;;0.45;0.45;;;;;;;8.61;76.30;99790.66;5081234;28;20036;-76
2022/11/18 04:45:00;;;;;;;0.10;0.10;;;;;;;8.64;76.07;99789.69;5083144;28;20574;-76
2022/11/18 04:47:26;;;;;;;0.20;0.20;;;;;;;8.67;76.06;99798.41;5076212;28;20040;-76
2022/11/18 04:49:52;;;;;;;0.32;0.32;;;;;;;8.68;75.91;99799.25;5079165;28;20407;-76
2022/11/18 04:52:18;;;;;;;0.20;0.20;;;;;;;8.67;76.16;99803.69;5069025;28;20029;-76
2022/11/18 04:54:45;;;;;;;0.10;0.10;;;;;;;8.64;76.61;99803.75;5071585;28;20467;-76
2022/11/18 04:57:11;;;;;;;0.10;0.10;;;;;;;8.66;76.11;99807.22;5078891;28;20035;-77
2022/11/18 04:59:37;;;;;;;0.10;0.10;;;;;;;8.68;76.52;99820.38;5075573;28;20051;-78
2022/11/18 05:02:04;;;;;;;0.20;0.20;;;;;;;8.69;76.46;99820.31;5078219;28;20028;-77
2022/11/18 05:04:32;;;;;;;0.57;0.57;;;;;;;8.70;76.44;99827.34;5079867;28;20028;-76
2022/11/18 05:07:01;;;;;;;0.10;0.10;;;;;;;8.70;76.26;99824.69;5084448;28;20037;-77
2022/11/18 05:09:27;;;;;;;0.10;0.10;;;;;;;8.74;76.18;99821.06;5071767;28;20028;-78
2022/11/18 05:14:40;;;;;;;0.10;0.10;;;;;;;8.80;76.31;99835.00;5073416;28;20032;-77
2022/11/18 05:17:08;;;;;;;0.10;0.10;;;;;;;8.84;75.70;99837.50;5070878;28;20068;-77
2022/11/18 05:19:36;;;;;;;0.20;0.20;;;;;;;8.83;76.62;99835.78;5073918;28;20081;-77
2022/11/18 05:22:02;;;;;;;0.20;0.20;;;;;;;8.81;76.74;99836.72;5076224;28;20024;-77
2022/11/18 05:24:28;;;;;;;0.30;0.30;;;;;;;8.81;76.76;99836.72;5076793;28;20070;-77
2022/11/18 05:26:54;;;;;;;0.10;0.10;;;;;;;8.79;76.93;99843.84;5052418;28;20033;-77
2022/11/18 05:29:21;;;;;;;0.20;0.20;;;;;;;8.78;76.29;99842.13;5060957;28;20040;-77
2022/11/18 05:31:48;;;;;;;0.20;0.20;;;;;;;8.78;76.50;99847.41;5059783;28;20025;-77
2022/11/18 05:34:16;;;;;;;0.20;0.20;;;;;;;8.77;76.09;99856.22;5066823;28;20087;-77
2022/11/18 05:36:42;;;;;;;0.25;0.25;;;;;;;8.73;76.21;99850.16;5063886;28;20028;-77
2022/11/18 05:39:08;;;;;;;0.20;0.20;;;;;;;8.70;75.93;99844.97;5054701;28;20036;-77
2022/11/18 05:44:21;;;;;;;0.10;0.10;;;;;;;8.63;76.40;99849.53;5058594;28;20037;-78
2022/11/18 05:46:47;;;;;;;0.20;0.20;;;;;;;8.58;76.24;99859.38;5059201;28;20552;-77
2022/11/18 05:49:13;;;;;;;0.10;0.10;;;;;;;8.53;75.51;99861.28;5065285;28;20108;-77
2022/11/18 05:51:39;;;;;;;0.20;0.20;;;;;;;8.49;76.06;99865.78;5058227;28;20033;-77
2022/11/18 05:54:08;;;;;;;0.20;0.20;;;;;;;8.49;75.30;99867.56;5055583;28;20021;-77
2022/11/18 05:56:39;;;;;;;0.10;0.10;;;;;;;8.45;75.84;99863.22;5059626;28;20072;-77
2022/11/18 05:59:05;;;;;;;0.20;0.20;;;;;;;8.41;75.78;99865.06;5065222;28;20031;-77
2022/11/18 06:01:39;;;;;;;0.20;0.20;;;;;;;8.39;75.18;99865.13;5056869;28;20029;-77
2022/11/18 06:04:17;;;;;;;0.20;0.20;;;;;;;8.37;76.33;99868.72;5060120;28;20027;-77
2022/11/18 06:06:46;;;;;;;0.20;0.20;;;;;;;8.33;75.63;99873.19;5070276;28;20052;-77
2022/11/18 06:09:14;;;;;;;0.20;0.20;;;;;;;8.32;75.65;99875.88;5063854;28;20118;-77
2022/11/18 06:11:47;;;;;;;0.20;0.20;;;;;;;8.32;75.34;99881.16;5056890;28;20052;-77
2022/11/18 06:14:21;;;;;;;0.10;0.10;;;;;;;8.30;75.14;99893.53;5060707;28;20092;-77
2022/11/18 06:16:54;;;;;;;0.20;0.20;;;;;;;8.26;75.47;99890.09;5057879;28;20034;-77
2022/11/18 06:19:21;;;;;;;0.20;0.20;;;;;;;8.22;75.71;99893.72;5054915;28;20043;-77
2022/11/18 06:21:48;;;;;;;0.10;0.10;;;;;;;8.18;75.05;99894.72;5062304;28;20036;-77
2022/11/18 06:24:14;;;;;;;0.20;0.20;;;;;;;8.10;75.23;99898.41;5061259;28;20677;-77
2022/11/18 06:26:41;;;;;;;0.13;0.13;;;;;;;8.08;75.55;99902.84;5055441;28;20029;-76
2022/11/18 06:29:10;;;;;;;0.20;0.20;;;;;;;8.07;75.05;99909.06;5062744;28;20037;-77
2022/11/18 06:31:36;;;;;;;0.20;0.20;;;;;;;8.06;75.16;99920.50;5055912;28;20052;-77
2022/11/18 06:34:02;;;;;;;0.10;0.10;;;;;;;8.04;75.57;99919.66;5057334;28;20032;-77
2022/11/18 06:36:28;;;;;;;0.20;0.20;;;;;;;8.03;75.13;99928.47;5064574;28;20025;-77
2022/11/18 06:38:54;;;;;;;0.20;0.20;;;;;;;8.02;75.18;99932.03;5051073;28;20028;-77
2022/11/18 06:41:20;;;;;;;0.32;0.32;;;;;;;8.00;75.07;99936.50;5054770;28;20464;-78
2022/11/18 06:43:46;;;;;;;0.10;0.10;;;;;;;8.00;75.53;99933.84;5063692;28;20059;-77
2022/11/18 06:49:02;;;;;;;0.20;0.20;;;;;;;8.00;75.18;99944.41;5051338;28;20047;-77
2022/11/18 06:51:29;;;;;;;0.10;0.10;;;;;;;7.99;75.20;99958.50;5050820;28;20052;-77
2022/11/18 06:53:55;;;;;;;0.20;0.20;;;;;;;7.99;75.69;99952.31;5053405;28;20025;-77
2022/11/18 06:56:22;;;;;;;0.10;0.10;;;;;;;8.01;75.05;99955.81;5055430;28;20309;-76
2022/11/18 06:58:53;;;;;;;0.17;0.17;;;;;;;8.03;75.45;99957.50;5057283;28;20442;-78
2022/11/18 07:01:22;;;;;;;0.10;0.10;;;;;;;8.04;75.69;99955.75;5058549;28;20080;-77
2022/11/18 07:03:48;;;;;;;0.13;0.13;;;;;;;8.06;75.53;99969.75;5059951;28;20032;-77
2022/11/18 07:06:18;;;;;;;0.10;0.10;;;;;;;8.10;75.83;99967.00;5062289;28;20045;-77
2022/11/18 07:08:44;;;;;;;0.10;0.10;;;;;;;8.16;75.70;99978.31;5052230;28;20123;-77
2022/11/18 07:11:13;;;;;;;0.20;0.20;;;;;;;8.23;75.73;99982.56;5049705;28;20067;-77
2022/11/18 07:13:39;;;;;;;0.40;0.40;;;;;;;8.30;76.24;99983.25;5056247;28;20024;-77
2022/11/18 07:16:08;;;;;;;0.25;0.25;;;;;;;8.37;76.32;99985.72;5058494;28;20039;-77
2022/11/18 07:18:36;;;;;;;0.50;0.50;;;;;;;8.43;76.11;99985.56;5063082;28;20081;-78
2022/11/18 07:21:05;;;;;;;0.13;0.13;;;;;;;8.48;76.04;99985.47;5053160;28;20568;-78
2022/11/18 07:23:33;;;;;;;0.17;0.17;;;;;;;8.53;76.30;99990.66;5060772;28;20029;-77
2022/11/18 07:25:59;;;;;;;2.25;2.15;;;;;;;8.54;76.72;99990.59;5051746;28;20116;-77
2022/11/18 07:28:27;;;;;;;0.13;0.13;;;;;;;8.60;76.49;99991.34;5052990;28;21655;-76
2022/11/18 07:30:59;;;;;;;0.20;0.20;;;;;;;8.62;76.65;99990.41;5059131;28;20373;-78
2022/11/18 07:33:25;;;;;;;0.43;0.43;;;;;;;8.66;77.18;100005.28;5066106;28;20028;-77
2022/11/18 07:35:51;;;;;;;0.15;0.15;;;;;;;8.72;77.23;100001.59;5065724;28;20090;-78
2022/11/18 07:38:17;;;;;;;0.10;0.10;;;;;;;8.77;77.36;100014.69;5058694;28;20035;-77
2022/11/18 07:40:43;;;;;;;0.20;0.20;;;;;;;8.81;76.87;100016.34;5063890;28;20040;-77
2022/11/18 07:43:09;;;;;;;0.20;0.20;;;;;;;8.86;77.33;100019.72;5054746;28;20033;-78
2022/11/18 07:45:35;;;;;;;0.10;0.10;;;;;;;8.91;77.04;100028.41;5063571;28;20159;-78
2022/11/18 07:48:01;;;;;;;0.25;0.25;;;;;;;8.97;77.06;100030.91;5059546;28;20039;-77
2022/11/18 07:50:28;;;;;;;0.10;0.10;;;;;;;9.04;77.33;100036.88;5050320;28;20021;-77
2022/11/18 07:52:56;;;;;;;0.10;0.10;;;;;;;9.12;77.26;100045.47;5056307;28;21004;-76
2022/11/18 07:55:23;;;;;;;0.20;0.20;;;;;;;9.16;76.87;100043.59;5058746;28;20025;-79
2022/11/18 07:57:49;;;;;;;0.10;0.10;;;;;;;9.18;77.22;100047.06;5045809;28;20044;-77
2022/11/18 08:00:16;;;;;;;0.10;0.10;;;;;;;9.23;77.33;100047.81;5051435;28;20021;-78
2022/11/18 08:02:42;;;;;;;1.52;1.45;;;;;;;9.29;77.13;100049.44;5055595;28;20037;-78
2022/11/18 08:05:09;;;;;;;2.90;1.17;;;;;;;9.34;76.89;100050.16;5057141;28;20032;-78
2022/11/18 08:07:35;;;;;;;0.52;0.52;;;;;;;9.39;77.18;100057.06;5072237;28;20036;-78
2022/11/18 08:10:02;;;;;;;0.13;0.13;;;;;;;9.46;76.84;100063.06;5055837;28;20032;-78
2022/11/18 08:12:29;;;;;;;0.10;0.10;;;;;;;9.52;76.93;100064.63;5058627;28;20029;-78
2022/11/18 08:14:56;;;;;;;0.10;0.10;;;;;;;9.59;76.92;100068.84;5070247;28;20017;-79
2022/11/18 08:17:22;;;;;;;0.10;0.10;;;;;;;9.65;76.81;100068.69;5068097;28;20123;-78
2022/11/18 08:19:48;;;;;;;0.10;0.10;;;;;;;9.70;76.92;100064.13;5052516;28;20032;-78
2022/11/18 08:22:17;;;;;;;0.10;0.10;;;;;;;9.71;77.12;100073.78;5055427;28;20039;-77
2022/11/18 08:24:44;;;;;;;0.20;0.20;;;;;;;9.75;77.57;100073.72;5063724;28;20017;-78
2022/11/18 08:27:10;;;;;;;0.20;0.20;;;;;;;9.83;77.40;100077.00;5043256;28;20083;-78
2022/11/18 08:29:36;;;;;;;0.20;0.20;;;;;;;9.86;77.44;100076.91;5050183;28;20025;-78
2022/11/18 08:32:02;;;;;;;0.10;0.10;;;;;;;10.02;77.10;100078.19;5067188;28;20040;-78
2022/11/18 08:34:29;;;;;;;0.10;0.10;;;;;;;10.08;76.94;100073.63;5060162;28;20021;-77
2022/11/18 08:36:55;;;;;;;0.10;0.10;;;;;;;10.14;76.69;100086.66;5067391;28;20516;-77
2022/11/18 08:39:21;;;;;;;0.10;0.10;;;;;;;10.18;76.54;100083.00;5069881;28;20032;-77
2022/11/18 08:41:47;;;;;;;0.20;0.20;;;;;;;10.23;76.51;100091.69;5065085;28;20035;-78
2022/11/18 08:44:15;;;;;;;0.20;0.20;;;;;;;10.27;76.33;100097.75;5063576;28;20051;-78
2022/11/18 08:46:44;;;;;;;0.20;0.20;;;;;;;10.30;76.23;100090.56;5050708;28;20029;-78
2022/11/18 08:49:10;;;;;;;0.10;0.10;;;;;;;10.36;76.28;100093.06;5045983;28;20030;-78
2022/11/18 08:51:37;;;;;;;0.10;0.10;;;;;;;10.44;76.26;100099.91;5053872;28;20040;-79
2022/11/18 08:54:03;;;;;;;0.10;0.10;;;;;;;10.45;75.86;100099.00;5072884;28;20032;-77
2022/11/18 08:56:29;;;;;;;0.10;0.10;;;;;;;10.45;75.56;100102.50;5064404;28;20090;-77
2022/11/18 08:58:55;;;;;;;0.10;0.10;;;;;;;10.48;75.54;100096.22;5063082;28;20067;-77
2022/11/18 09:01:22;;;;;;;0.90;0.90;;;;;;;10.51;75.36;100094.34;5054238;28;20025;-77
2022/11/18 09:03:48;;;;;;;0.10;0.10;;;;;;;10.45;74.83;100104.28;5068491;28;20033;-78
2022/11/18 09:06:19;;;;;;;0.10;0.10;;;;;;;10.50;74.83;100107.66;5064914;28;20032;-78
2022/11/18 09:08:46;;;;;;;0.73;0.73;;;;;;;10.50;74.43;100107.66;5056586;28;20040;-78
2022/11/18 09:11:17;;;;;;;0.30;0.30;;;;;;;10.52;74.61;100111.13;5046584;28;20052;-76
2022/11/18 09:13:43;;;;;;;0.10;0.10;;;;;;;10.52;74.55;100105.84;5043227;28;20025;-78
2022/11/18 09:16:09;;;;;;;0.10;0.10;;;;;;;10.50;74.29;100120.91;5066211;28;20028;-78
2022/11/18 09:18:36;;;;;;;0.10;0.10;;;;;;;10.50;74.16;100120.91;5071030;28;20052;-78
2022/11/18 09:21:05;;;;;;;0.10;0.10;;;;;;;10.50;74.11;100128.84;5052942;28;20064;-78
2022/11/18 09:23:33;;;;;;;0.20;0.20;;;;;;;10.51;73.80;100133.22;5062162;28;20060;-77
2022/11/18 09:26:05;;;;;;;0.10;0.10;;;;;;;10.53;74.11;100126.13;5049617;28;20040;-78
2022/11/18 09:28:32;;;;;;;0.10;0.10;;;;;;;10.55;73.87;100145.47;5064235;28;20045;-77
2022/11/18 09:30:59;;;;;;;0.57;0.57;;;;;;;10.58;74.02;100137.44;5061679;28;20024;-77
2022/11/18 09:33:26;;;;;;;0.10;0.10;;;;;;;10.63;74.16;100145.22;5055560;28;20559;-78
2022/11/18 09:35:52;;;;;;;0.15;0.15;;;;;;;10.63;73.68;100143.44;5062540;28;20044;-77
2022/11/18 09:38:18;;;;;;;0.10;0.10;;;;;;;10.67;74.09;100144.22;5055938;28;20028;-76
2022/11/18 09:41:14;;;;;;;0.15;0.15;;;;;;;10.74;73.68;100150.19;5060311;28;20086;-77
2022/11/18 09:43:59;;;;;;;0.85;0.85;;;;;;;10.81;73.69;100157.03;5053629;28;20091;-77
2022/11/18 09:49:26;;;;;;;0.20;0.20;;;;;;;10.95;74.07;100167.19;5092481;27;20348;-78
2022/11/18 09:51:52;;;;;;;;;;;;;;;11.12;73.92;100169.28;5091032;28;20059;-77
2022/11/18 09:56:56;;;;;;;18.30;2.05;;;;;;;11.22;74.00;100177.81;5066481;28;20141;-78
2022/11/18 09:59:26;;;;;;;0.10;0.10;;;;;;;11.30;74.25;100181.03;5045056;28;20088;-78
2022/11/18 10:01:55;;;;;;;0.10;0.10;;;;;;;11.31;73.92;100183.66;5039700;28;20054;-78
2022/11/18 10:04:21;;;;;;;0.10;0.10;;;;;;;11.31;73.42;100183.66;5032287;28;20030;-78
2022/11/18 10:06:49;;;;;;;0.10;0.10;;;;;;;11.37;73.23;100181.72;5032866;28;20021;-78
2022/11/18 10:09:38;;;;;;;0.10;0.10;;;;;;;11.47;73.74;100183.13;5041198;28;20408;-78
2022/11/18 10:17:45;;;;;;;0.10;0.10;;;;;;;11.51;73.21;100191.84;5073013;28;20386;-77
2022/11/18 10:25:33;;;;;;;0.10;0.10;;;;;;;11.55;73.10;100201.44;5113758;27;20343;-77
2022/11/18 10:28:22;;;;;;;1.13;0.60;;;;;;;11.67;72.95;100200.16;5113323;28;20035;-78
2022/11/18 10:30:48;;;;;;;0.10;0.10;;;;;;;11.68;72.64;100207.19;5113726;28;20043;-78
2022/11/18 10:36:27;;;;;;;0.10;0.10;;;;;;;11.83;72.72;100214.63;5113595;27;20382;-78
2022/11/18 10:41:48;;;;;;;0.10;0.10;;;;;;;11.88;72.11;100222.44;5115027;27;20391;-78
2022/11/18 10:44:36;;;;;;;0.17;0.17;;;;;;;11.98;71.65;100230.03;5115366;28;20042;-78
2022/11/18 10:47:25;;;;;;;0.10;0.10;;;;;;;12.04;71.92;100225.44;5114286;27;20028;-79
2022/11/18 10:49:52;;;;;;;0.20;0.20;;;;;;;11.95;72.30;100234.53;5092530;28;20031;-78
2022/11/18 10:52:19;;;;;;;0.40;0.40;;;;;;;12.01;72.14;100221.06;5092841;28;20040;-78
2022/11/18 10:55:03;;;;;;;0.15;0.15;;;;;;;12.03;72.00;100229.00;5090678;28;20560;-78
2022/11/18 10:57:35;;;;;;;0.10;0.10;;;;;;;12.09;71.62;100234.09;5091226;28;20036;-77
2022/11/18 11:00:02;;;;;;;0.10;0.10;;;;;;;12.13;71.95;100230.41;5090882;28;20052;-77
2022/11/18 11:02:33;;;;;;;0.10;0.10;;;;;;;12.20;72.12;100231.91;5090784;28;20504;-78
2022/11/18 11:05:02;;;;;;;0.10;0.10;;;;;;;12.22;71.36;100230.06;5091610;28;20024;-78
2022/11/18 11:07:34;;;;;;;0.10;0.10;;;;;;;12.24;70.47;100233.53;5091186;28;20035;-76
2022/11/18 11:12:45;;;;;;;0.10;0.10;;;;;;;12.25;71.05;100231.72;5141762;27;1179953;-78
2022/11/18 11:15:20;;;;;;;0.10;0.10;;;;;;;12.28;70.51;100240.44;5159744;27;20031;-78
2022/11/18 11:18:40;;;;;;;0.10;0.10;;;;;;;12.34;71.10;100241.19;5156757;27;20027;-78
2022/11/18 11:20:40;;;;;;;0.22;0.22;;;;;;;12.34;71.06;100235.88;5136772;27;20032;-79
2022/11/18 11:23:09;;;;;;;0.10;0.10;;;;;;;12.42;71.16;100239.06;5139315;27;20035;-77
2022/11/18 11:28:52;;;;;;;0.10;0.10;;;;;;;12.47;70.11;100237.13;5117326;27;20403;-78
2022/11/18 11:31:34;;;;;;;0.30;0.30;;;;;;;12.53;70.76;100230.72;5107388;27;20040;-77
2022/11/18 11:34:26;;;;;;;0.28;0.28;;;;;;;12.53;70.50;100247.50;5112269;28;20023;-77
2022/11/18 11:37:19;;;;;;;0.10;0.10;;;;;;;12.62;70.78;100239.22;5119573;28;20391;-77
2022/11/18 11:51:15;;;;;;;0.65;0.65;;;;;;;12.80;69.70;100258.03;5103581;27;20768;-77
2022/11/18 11:53:55;;;;;;;0.20;0.20;;;;;;;12.79;69.66;100256.28;5106939;28;20042;-78
2022/11/18 11:59:31;;;;;;;0.10;0.10;;;;;;;12.79;70.40;100256.28;5109928;27;20907;-78
2022/11/18 12:02:15;;;;;;;0.10;0.10;;;;;;;12.76;70.31;100254.63;5118362;28;20032;-77
2022/11/18 12:05:04;;;;;;;0.20;0.20;;;;;;;12.74;70.65;100253.81;5102263;28;20032;-76
2022/11/18 12:07:41;;;;;;;0.10;0.10;;;;;;;12.70;70.37;100252.19;5118938;28;20028;-78
2022/11/18 12:10:36;;;;;;;0.20;0.20;;;;;;;12.73;70.59;100261.84;5093328;28;20016;-77
2022/11/18 12:27:01;;;;;;;0.20;0.20;;;;;;;12.73;70.18;100261.84;5111461;27;20346;-78
2022/11/18 12:32:42;;;;;;;0.20;0.20;;;;;;;12.77;69.63;100259.00;5117150;27;20376;-77
2022/11/18 12:40:43;;;;;;;0.17;0.17;;;;;;;13.01;68.74;100271.41;5140498;27;1180724;-77
2022/11/18 12:45:53;;;;;;;0.10;0.10;;;;;;;13.00;69.55;100275.00;5121948;27;20426;-77
2022/11/18 12:48:40;;;;;;;0.15;0.15;;;;;;;13.06;68.60;100270.28;5119613;28;20490;-78
2022/11/18 12:53:48;;;;;;;0.17;0.17;;;;;;;13.01;69.16;100282.91;5115548;27;1182387;-79
2022/11/18 12:58:56;;;;;;;0.17;0.17;;;;;;;12.96;68.66;100290.22;5094079;28;20389;-79
2022/11/18 13:01:25;;;;;;;0.10;0.10;;;;;;;12.92;68.74;100292.13;5094256;28;20036;-77
2022/11/18 13:04:04;;;;;;;0.20;0.20;;;;;;;12.84;68.73;100291.53;5094464;28;20035;-78
2022/11/18 13:06:32;;;;;;;0.10;0.10;;;;;;;12.83;68.84;100295.13;5087585;28;20035;-77
2022/11/18 13:09:01;;;;;;;1.10;0.52;;;;;;;12.76;69.31;100299.81;5079918;28;20527;-78
2022/11/18 13:11:45;;;;;;;0.15;0.15;;;;;;;12.75;68.95;100302.53;5071113;28;20400;-78
2022/11/18 13:20:00;;;;;;;0.32;0.32;;;;;;;12.71;69.91;100309.75;5110072;27;20395;-81
2022/11/18 13:25:28;;;;;;;1.75;1.65;;;;;;;12.73;69.56;100315.84;5096518;28;20058;-80
2022/11/18 13:30:51;;;;;;;0.82;0.82;;;;;;;12.70;68.96;100313.34;5099197;27;20387;-77
2022/11/18 13:33:17;;;;;;;0.10;0.10;;;;;;;12.69;69.67;100324.03;5084533;28;20505;-77
2022/11/18 13:35:43;;;;;;;0.10;0.10;;;;;;;12.66;69.44;100318.81;5085768;28;20024;-78
2022/11/18 13:38:20;;;;;;;0.75;0.75;;;;;;;12.71;69.56;100319.50;5085217;28;20103;-77
2022/11/18 13:41:03;;;;;;;0.75;0.75;;;;;;;12.70;70.03;100320.44;5080532;28;20043;-77